createdAt,value
2022-12-27T00:00:45.683Z,0.68
2022-12-27T00:03:13.751Z,1.25
2022-12-27T00:05:44.086Z,1.02
2022-12-27T00:08:11.849Z,0.80
2022-12-27T00:10:40.023Z,1.45
2022-12-27T00:13:07.785Z,0.82
2022-12-27T00:15:37.470Z,0.95
2022-12-27T00:18:05.506Z,1.27
2022-12-27T00:20:33.311Z,1.15
2022-12-27T00:23:02.087Z,1.25
2022-12-27T00:25:29.867Z,0.82
2022-12-27T00:27:57.688Z,1.00
2022-12-27T00:30:25.419Z,0.75
2022-12-27T00:32:54.491Z,1.08
2022-12-27T00:35:22.234Z,0.93
2022-12-27T00:37:49.992Z,0.85
2022-12-27T00:40:17.898Z,1.23
2022-12-27T00:42:45.798Z,1.00
2022-12-27T00:45:13.506Z,0.90
2022-12-27T00:47:41.283Z,1.15
2022-12-27T00:50:10.943Z,0.90
2022-12-27T00:52:38.641Z,0.90
2022-12-27T00:55:07.083Z,0.82
2022-12-27T00:57:34.865Z,1.35
2022-12-27T01:00:09.606Z,1.00
2022-12-27T01:02:38.034Z,0.80
2022-12-27T01:05:06.536Z,1.33
2022-12-27T01:07:37.148Z,1.35
2022-12-27T01:10:05.739Z,0.85
2022-12-27T01:12:33.449Z,1.30
2022-12-27T01:15:01.255Z,1.10
2022-12-27T01:17:30.622Z,0.80
2022-12-27T01:19:58.411Z,1.83
2022-12-27T01:22:26.388Z,0.85
2022-12-27T01:24:55.827Z,0.70
2022-12-27T01:27:23.642Z,0.80
2022-12-27T01:29:51.790Z,1.00
2022-12-27T01:32:19.550Z,1.00
2022-12-27T01:34:47.368Z,1.10
2022-12-27T01:37:15.075Z,0.82
2022-12-27T01:39:42.881Z,1.00
2022-12-27T01:42:34.614Z,1.20
2022-12-27T01:45:04.022Z,1.30
2022-12-27T01:47:45.089Z,0.90
2022-12-27T01:50:19.259Z,0.90
2022-12-27T01:52:53.244Z,0.88
2022-12-27T01:55:26.289Z,1.02
2022-12-27T01:57:58.042Z,1.27
2022-12-27T02:00:25.907Z,1.20
2022-12-27T02:02:54.345Z,0.77
2022-12-27T02:05:25.278Z,1.13
2022-12-27T02:08:06.176Z,0.98
2022-12-27T02:10:34.729Z,1.10
2022-12-27T02:13:05.699Z,1.38
2022-12-27T02:15:33.989Z,0.98
2022-12-27T02:18:02.017Z,1.30
2022-12-27T02:20:42.762Z,1.05
2022-12-27T02:23:58.943Z,1.80
2022-12-27T02:26:42.997Z,0.93
2022-12-27T02:29:23.773Z,1.33
2022-12-27T02:31:59.161Z,1.15
2022-12-27T02:34:30.722Z,0.98
2022-12-27T02:37:04.085Z,0.80
2022-12-27T02:39:36.078Z,1.60
2022-12-27T02:42:23.563Z,1.08
2022-12-27T02:45:12.457Z,1.00
2022-12-27T02:47:58.087Z,0.95
2022-12-27T02:50:51.182Z,1.02
2022-12-27T02:53:31.511Z,1.00
2022-12-27T02:56:31.939Z,0.80
2022-12-27T02:59:16.269Z,1.30
2022-12-27T03:02:10.015Z,1.42
2022-12-27T03:05:05.019Z,1.17
2022-12-27T03:07:39.066Z,1.38
2022-12-27T03:10:32.925Z,1.27
2022-12-27T03:13:31.899Z,79.35
2022-12-27T03:16:09.376Z,2.97
2022-12-27T03:19:06.729Z,1.45
2022-12-27T03:21:54.758Z,1.35
2022-12-27T03:24:45.211Z,1.17
2022-12-27T03:27:18.401Z,1.48
2022-12-27T03:30:10.998Z,1.10
2022-12-27T03:33:01.365Z,1.10
2022-12-27T03:35:35.923Z,1.10
2022-12-27T03:38:05.578Z,14.73
2022-12-27T03:41:08.097Z,4.88
2022-12-27T03:43:37.869Z,1.40
2022-12-27T03:46:35.653Z,1.80
2022-12-27T03:49:12.650Z,1.02
2022-12-27T03:51:47.395Z,1.52
2022-12-27T03:54:19.807Z,1.00
2022-12-27T03:56:47.564Z,1.30
2022-12-27T03:59:15.492Z,1.20
2022-12-27T04:01:43.383Z,1.00
2022-12-27T04:04:11.170Z,1.30
2022-12-27T04:06:39.014Z,1.17
2022-12-27T04:09:25.555Z,1.02
2022-12-27T04:12:10.923Z,1.50
2022-12-27T04:14:56.410Z,1.15
2022-12-27T04:17:41.703Z,1.65
2022-12-27T04:20:27.575Z,1.40
2022-12-27T04:23:12.854Z,1.45
2022-12-27T04:25:59.565Z,1.90
2022-12-27T04:28:44.909Z,1.23
2022-12-27T04:31:30.311Z,1.38
2022-12-27T04:34:16.199Z,1.50
2022-12-27T04:36:44.040Z,1.40
2022-12-27T04:39:11.732Z,1.73
2022-12-27T04:41:59.202Z,1.88
2022-12-27T04:44:45.104Z,1.60
2022-12-27T04:47:32.041Z,1.20
2022-12-27T04:50:17.393Z,1.50
2022-12-27T04:53:02.756Z,1.77
2022-12-27T04:55:31.833Z,1.40
2022-12-27T04:58:01.093Z,1.38
2022-12-27T05:00:49.520Z,1.75
2022-12-27T05:03:20.876Z,1.60
2022-12-27T05:05:51.796Z,1.90
2022-12-27T05:08:38.674Z,1.63
2022-12-27T05:11:23.878Z,1.40
2022-12-27T05:14:01.974Z,1.10
2022-12-27T05:16:31.394Z,1.45
2022-12-27T05:18:59.405Z,1.00
2022-12-27T05:21:27.286Z,1.15
2022-12-27T05:24:12.266Z,1.40
2022-12-27T05:26:41.901Z,1.20
2022-12-27T05:29:11.168Z,1.38
2022-12-27T05:31:39.010Z,1.50
2022-12-27T05:34:07.185Z,1.40
2022-12-27T05:36:34.978Z,1.95
2022-12-27T05:39:02.844Z,1.17
2022-12-27T05:41:30.608Z,1.55
2022-12-27T05:44:04.822Z,1.67
2022-12-27T05:46:36.146Z,1.65
2022-12-27T05:49:04.734Z,1.25
2022-12-27T05:51:32.504Z,1.65
2022-12-27T05:54:00.316Z,1.30
2022-12-27T05:56:28.094Z,1.30
2022-12-27T05:58:55.860Z,1.00
2022-12-27T06:01:23.887Z,1.30
2022-12-27T06:03:53.072Z,1.27
2022-12-27T06:06:21.188Z,1.40
2022-12-27T06:08:48.943Z,1.20
2022-12-27T06:11:18.893Z,1.10
2022-12-27T06:13:51.209Z,1.20
2022-12-27T06:16:20.435Z,1.40
2022-12-27T06:18:48.352Z,1.65
2022-12-27T06:21:20.580Z,1.10
2022-12-27T06:23:49.498Z,1.00
2022-12-27T06:26:19.797Z,1.40
2022-12-27T06:28:49.744Z,1.25
2022-12-27T06:31:19.051Z,1.60
2022-12-27T06:33:47.980Z,1.10
2022-12-27T06:36:19.871Z,1.25
2022-12-27T06:38:48.006Z,1.10
2022-12-27T06:41:18.506Z,1.30
2022-12-27T06:43:47.415Z,1.08
2022-12-27T06:46:18.778Z,1.20
2022-12-27T06:48:47.712Z,1.30
2022-12-27T06:51:18.442Z,1.23
2022-12-27T06:53:46.223Z,1.10
2022-12-27T06:56:17.013Z,1.15
2022-12-27T06:58:45.261Z,1.05
2022-12-27T07:01:16.112Z,1.25
2022-12-27T07:03:44.515Z,1.15
2022-12-27T07:06:12.928Z,1.15
2022-12-27T07:08:42.519Z,1.35
2022-12-27T07:11:12.195Z,1.17
2022-12-27T07:13:41.709Z,1.13
2022-12-27T07:16:11.752Z,1.10
2022-12-27T07:18:39.944Z,1.10
2022-12-27T07:21:09.649Z,1.10
2022-12-27T07:23:38.751Z,1.10
2022-12-27T07:26:10.136Z,1.45
2022-12-27T07:28:38.443Z,1.17
2022-12-27T07:31:09.141Z,1.20
2022-12-27T07:33:38.393Z,1.40
2022-12-27T07:36:09.988Z,1.10
2022-12-27T07:38:37.818Z,1.10
2022-12-27T07:41:09.033Z,1.30
2022-12-27T07:43:37.542Z,1.20
2022-12-27T07:46:06.622Z,1.30
2022-12-27T07:48:34.583Z,1.20
2022-12-27T07:51:03.027Z,1.00
2022-12-27T07:53:31.669Z,1.23
2022-12-27T07:55:59.931Z,1.15
2022-12-27T07:58:29.055Z,1.20
2022-12-27T08:00:57.495Z,1.05
2022-12-27T08:03:25.313Z,1.60
2022-12-27T08:05:53.502Z,1.00
2022-12-27T08:08:24.201Z,0.77
2022-12-27T08:10:51.960Z,1.55
2022-12-27T08:13:19.759Z,0.90
2022-12-27T08:15:56.525Z,0.93
2022-12-27T08:18:24.594Z,1.00
2022-12-27T08:20:52.501Z,1.20
2022-12-27T08:23:20.239Z,1.35
2022-12-27T08:25:49.014Z,0.88
2022-12-27T08:28:19.085Z,1.10
2022-12-27T08:30:48.970Z,0.98
2022-12-27T08:33:16.919Z,0.90
2022-12-27T08:35:54.779Z,1.00
2022-12-27T08:38:23.189Z,1.00
2022-12-27T08:40:50.995Z,1.15
2022-12-27T08:43:18.888Z,1.00
2022-12-27T08:45:48.199Z,1.40
2022-12-27T08:48:16.492Z,1.08
2022-12-27T08:50:44.341Z,1.38
2022-12-27T08:53:12.328Z,1.05
2022-12-27T08:55:40.133Z,1.15
2022-12-27T08:58:15.773Z,1.30
2022-12-27T09:00:44.326Z,1.60
2022-12-27T09:03:13.498Z,1.13
2022-12-27T09:05:42.279Z,1.33
2022-12-27T09:08:10.569Z,1.00
2022-12-27T09:10:39.299Z,0.98
2022-12-27T09:13:07.483Z,0.95
2022-12-27T09:15:35.293Z,1.95
2022-12-27T09:18:04.037Z,0.80
2022-12-27T09:20:33.165Z,1.15
2022-12-27T09:23:01.090Z,0.98
2022-12-27T09:25:28.868Z,0.85
2022-12-27T09:27:56.749Z,0.88
2022-12-27T09:30:24.529Z,0.90
2022-12-27T09:32:52.257Z,0.98
2022-12-27T09:35:20.059Z,0.90
2022-12-27T09:37:49.234Z,1.20
2022-12-27T09:40:20.639Z,1.08
2022-12-27T09:43:12.603Z,0.95
2022-12-27T09:45:48.155Z,1.30
2022-12-27T09:48:21.838Z,0.80
2022-12-27T09:50:55.832Z,1.00
2022-12-27T09:53:34.746Z,0.90
2022-12-27T09:56:02.591Z,1.30
2022-12-27T09:58:42.145Z,2.03
2022-12-27T10:01:20.149Z,1.20
2022-12-27T10:03:49.203Z,1.20
2022-12-27T10:06:31.454Z,1.20
2022-12-27T10:11:42.492Z,1.03
2022-12-27T10:14:28.346Z,1.02
2022-12-27T10:17:03.851Z,1.23
2022-12-27T10:19:43.192Z,1.20
2022-12-27T10:22:24.004Z,1.25
2022-12-27T10:24:56.876Z,1.13
2022-12-27T10:27:26.492Z,0.88
2022-12-27T10:29:55.695Z,1.02
2022-12-27T10:32:23.919Z,1.00
2022-12-27T10:34:56.682Z,0.90
2022-12-27T10:37:24.956Z,1.00
2022-12-27T10:39:54.100Z,0.90
2022-12-27T10:42:35.398Z,1.10
2022-12-27T10:45:28.162Z,0.82
2022-12-27T10:47:58.115Z,1.23
2022-12-27T10:50:29.594Z,1.25
2022-12-27T10:52:57.932Z,1.20
2022-12-27T10:55:36.079Z,1.00
2022-12-27T10:58:22.609Z,1.00
2022-12-27T11:00:58.012Z,1.00
2022-12-27T11:03:28.373Z,1.30
2022-12-27T11:06:02.693Z,1.20
2022-12-27T11:08:31.519Z,1.52
2022-12-27T11:11:15.881Z,1.00
2022-12-27T11:13:43.979Z,1.00
2022-12-27T11:16:19.242Z,0.82
2022-12-27T11:18:51.107Z,1.00
2022-12-27T11:21:27.303Z,1.13
2022-12-27T11:23:59.140Z,0.75
2022-12-27T11:26:30.961Z,1.20
2022-12-27T11:29:01.721Z,0.77
2022-12-27T11:31:34.148Z,0.70
2022-12-27T11:34:05.840Z,1.00
2022-12-27T11:36:37.288Z,1.00
2022-12-27T11:39:07.944Z,1.40
2022-12-27T11:41:46.687Z,1.25
2022-12-27T11:44:21.966Z,0.90
2022-12-27T11:46:59.054Z,1.23
2022-12-27T11:49:33.777Z,1.20
2022-12-27T11:52:28.214Z,2.03
2022-12-27T11:55:17.898Z,1.05
2022-12-27T11:58:24.975Z,1.27
2022-12-27T12:01:05.281Z,1.08
2022-12-27T12:04:00.889Z,1.48
2022-12-27T12:06:45.584Z,0.90
2022-12-27T12:09:31.559Z,1.30
2022-12-27T12:12:18.373Z,1.00
2022-12-27T12:15:13.824Z,0.70
2022-12-27T12:17:52.647Z,1.05
2022-12-27T12:20:45.642Z,1.10
2022-12-27T12:23:28.730Z,0.95
2022-12-27T12:26:14.176Z,0.90
2022-12-27T12:29:14.178Z,1.20
2022-12-27T12:32:10.962Z,1.02
2022-12-27T12:34:59.979Z,1.30
2022-12-27T12:37:48.292Z,1.30
2022-12-27T12:40:33.556Z,1.15
2022-12-27T12:43:14.924Z,1.15
2022-12-27T12:45:58.114Z,1.00
2022-12-27T12:48:57.524Z,1.02
2022-12-27T12:51:43.661Z,1.10
2022-12-27T12:54:29.482Z,1.08
2022-12-27T12:57:16.339Z,0.98
2022-12-27T13:00:08.771Z,1.10
2022-12-27T13:05:30.336Z,1.00
2022-12-27T13:08:07.277Z,1.00
2022-12-27T13:10:52.855Z,1.02
2022-12-27T13:13:27.284Z,1.10
2022-12-27T13:16:06.150Z,0.82
2022-12-27T13:18:44.473Z,0.90
2022-12-27T13:21:24.337Z,0.70
2022-12-27T13:24:03.240Z,0.80
2022-12-27T13:26:39.799Z,1.10
2022-12-27T13:29:40.320Z,1.15
2022-12-27T13:32:20.004Z,1.10
2022-12-27T13:35:00.361Z,1.10
2022-12-27T13:37:41.263Z,0.90
2022-12-27T13:40:29.545Z,1.00
2022-12-27T13:43:14.567Z,1.17
2022-12-27T13:46:00.591Z,1.00
2022-12-27T13:48:45.193Z,0.88
2022-12-27T13:51:35.377Z,0.70
2022-12-27T13:54:41.971Z,0.80
2022-12-27T13:57:24.800Z,0.98
2022-12-27T14:00:05.389Z,0.85
2022-12-27T14:02:58.587Z,1.30
2022-12-27T14:05:57.147Z,1.10
2022-12-27T14:08:38.920Z,2.38
2022-12-27T14:11:23.722Z,1.83
2022-12-27T14:13:52.444Z,1.48
2022-12-27T14:16:37.091Z,2.40
2022-12-27T14:19:27.674Z,2.10
2022-12-27T14:22:06.580Z,1.70
2022-12-27T14:25:05.135Z,1.35
2022-12-27T14:28:11.995Z,1.17
2022-12-27T14:31:07.552Z,0.98
2022-12-27T14:34:04.998Z,1.10
2022-12-27T14:37:07.793Z,0.73
2022-12-27T14:39:57.614Z,0.90
2022-12-27T14:43:12.636Z,0.80
2022-12-27T14:46:12.450Z,0.90
2022-12-27T14:49:17.696Z,0.98
2022-12-27T14:52:13.967Z,0.80
2022-12-27T14:55:12.596Z,0.75
2022-12-27T14:57:49.351Z,1.27
2022-12-27T15:00:20.764Z,1.20
2022-12-27T15:03:05.787Z,1.02
2022-12-27T15:05:44.438Z,1.27
2022-12-27T15:08:27.830Z,2.08
2022-12-27T15:11:15.488Z,1.00
2022-12-27T15:13:59.069Z,1.60
2022-12-27T15:16:40.409Z,0.93
2022-12-27T15:19:26.074Z,1.53
2022-12-27T15:22:03.075Z,1.05
2022-12-27T15:24:43.530Z,1.00
2022-12-27T15:27:21.252Z,1.08
2022-12-27T15:30:12.246Z,9.18
2022-12-27T15:32:53.257Z,1.10
2022-12-27T15:35:45.623Z,0.90
2022-12-27T15:38:16.673Z,1.60
2022-12-27T15:41:11.033Z,1.70
2022-12-27T15:44:06.265Z,1.15
2022-12-27T15:47:07.882Z,1.27
2022-12-27T15:49:51.028Z,0.90
2022-12-27T15:52:29.965Z,0.93
2022-12-27T15:55:16.900Z,0.95
2022-12-27T15:58:09.675Z,0.80
2022-12-27T16:00:38.433Z,1.00
2022-12-27T16:03:32.873Z,1.10
2022-12-27T16:06:02.980Z,0.90
2022-12-27T16:08:35.899Z,0.85
2022-12-27T16:11:06.401Z,1.27
2022-12-27T16:13:42.708Z,1.20
2022-12-27T16:16:33.508Z,1.27
2022-12-27T16:19:32.204Z,1.30
2022-12-27T16:22:04.716Z,0.95
2022-12-27T16:24:32.541Z,0.90
2022-12-27T16:27:05.122Z,1.00
2022-12-27T16:29:36.163Z,1.33
2022-12-27T16:32:20.547Z,1.02
2022-12-27T16:34:51.930Z,1.08
2022-12-27T16:37:28.979Z,0.90
2022-12-27T16:40:28.615Z,1.00
2022-12-27T16:43:33.087Z,2.08
2022-12-27T16:46:14.454Z,1.13
2022-12-27T16:48:58.365Z,1.52
2022-12-27T16:51:38.467Z,1.30
2022-12-27T16:54:24.227Z,1.35
2022-12-27T16:56:51.991Z,1.40
2022-12-27T16:59:57.200Z,1.30
2022-12-27T17:02:32.347Z,1.40
2022-12-27T17:05:01.148Z,1.40
2022-12-27T17:08:23.132Z,1.10
2022-12-27T17:11:02.090Z,0.90
2022-12-27T17:13:43.227Z,1.27
2022-12-27T17:16:20.270Z,9.38
2022-12-27T17:18:51.722Z,1.52
2022-12-27T17:21:29.902Z,0.90
2022-12-27T17:24:00.939Z,1.10
2022-12-27T17:26:54.049Z,1.10
2022-12-27T17:29:41.297Z,0.77
2022-12-27T17:32:23.452Z,0.70
2022-12-27T17:35:00.281Z,1.30
2022-12-27T17:37:36.596Z,1.83
2022-12-27T17:40:17.782Z,1.42
2022-12-27T17:43:17.402Z,1.17
2022-12-27T17:45:54.143Z,1.50
2022-12-27T17:48:27.876Z,1.20
2022-12-27T17:50:59.224Z,1.70
2022-12-27T17:53:44.410Z,2.03
2022-12-27T17:56:36.161Z,1.60
2022-12-27T17:59:11.885Z,1.80
2022-12-27T18:01:46.918Z,1.80
2022-12-27T18:04:22.834Z,1.73
2022-12-27T18:06:54.522Z,1.67
2022-12-27T18:09:34.158Z,1.35
2022-12-27T18:12:03.230Z,1.30
2022-12-27T18:14:34.948Z,1.40
2022-12-27T18:17:03.052Z,1.00
2022-12-27T18:19:33.345Z,1.23
2022-12-27T18:22:03.444Z,1.30
2022-12-27T18:24:33.447Z,1.08
2022-12-27T18:27:03.464Z,1.52
2022-12-27T18:29:33.083Z,1.27
2022-12-27T18:32:05.126Z,1.30
2022-12-27T18:37:07.286Z,1.20
2022-12-27T18:39:38.135Z,1.00
2022-12-27T18:42:13.274Z,1.40
2022-12-27T18:44:46.714Z,1.20
2022-12-27T18:47:21.455Z,1.00
2022-12-27T18:49:55.626Z,1.80
2022-12-27T18:52:26.945Z,1.55
2022-12-27T18:54:55.364Z,1.33
2022-12-27T18:57:40.983Z,1.17
2022-12-27T19:00:20.133Z,1.70
2022-12-27T19:02:48.261Z,2.00
2022-12-27T19:05:31.144Z,1.88
2022-12-27T19:08:08.894Z,2.40
2022-12-27T19:10:37.027Z,1.70
2022-12-27T19:13:05.155Z,1.85
2022-12-27T19:15:43.132Z,2.20
2022-12-27T19:18:23.076Z,2.08
2022-12-27T19:20:57.420Z,2.47
2022-12-27T19:23:32.563Z,2.50
2022-12-27T19:26:04.597Z,2.20
2022-12-27T19:31:23.487Z,1.85
2022-12-27T19:33:53.757Z,2.22
2022-12-27T19:36:26.073Z,2.00
2022-12-27T19:38:54.873Z,1.85
2022-12-27T19:41:22.637Z,2.20
2022-12-27T19:43:50.448Z,2.22
2022-12-27T19:46:19.120Z,2.30
2022-12-27T19:49:15.920Z,2.00
2022-12-27T19:51:38.961Z,2.00
2022-12-27T19:54:13.806Z,2.42
2022-12-27T19:56:42.221Z,2.60
2022-12-27T19:59:16.453Z,2.83
2022-12-27T20:01:45.545Z,2.20
2022-12-27T20:04:16.195Z,2.13
2022-12-27T20:06:45.327Z,2.85
2022-12-27T20:09:16.410Z,3.30
2022-12-27T20:11:45.076Z,4.53
2022-12-27T20:14:14.647Z,3.92
2022-12-27T20:16:42.856Z,4.38
2022-12-27T20:19:12.324Z,3.58
2022-12-27T20:21:41.722Z,5.78
2022-12-27T20:24:12.163Z,6.32
2022-12-27T20:26:40.870Z,6.25
2022-12-27T20:29:08.746Z,5.25
2022-12-27T20:31:44.147Z,6.50
2022-12-27T20:34:13.102Z,5.85
2022-12-27T20:36:43.145Z,5.88
2022-12-27T20:39:10.891Z,5.18
2022-12-27T20:41:38.671Z,4.18
2022-12-27T20:44:06.957Z,5.35
2022-12-27T20:46:34.883Z,5.35
2022-12-27T20:49:03.306Z,5.10
2022-12-27T20:51:33.396Z,5.70
2022-12-27T20:54:04.087Z,5.50
2022-12-27T20:56:32.199Z,5.53
2022-12-27T20:59:01.472Z,6.38
2022-12-27T21:01:29.524Z,5.75
2022-12-27T21:03:57.999Z,6.13
2022-12-27T21:06:28.896Z,7.60
2022-12-27T21:08:58.156Z,6.50
2022-12-27T21:11:31.744Z,6.57
2022-12-27T21:14:00.725Z,7.28
2022-12-27T21:16:31.333Z,7.85
2022-12-27T21:19:02.814Z,6.72
2022-12-27T21:21:30.928Z,7.60
2022-12-27T21:23:59.499Z,8.05
2022-12-27T21:26:31.098Z,10.85
2022-12-27T21:29:01.238Z,10.63
2022-12-27T21:31:29.814Z,12.25
2022-12-27T21:33:59.564Z,12.13
2022-12-27T21:36:31.866Z,12.52
2022-12-27T21:38:59.991Z,20.17
2022-12-27T21:41:31.143Z,13.75
2022-12-27T21:43:58.890Z,11.60
2022-12-27T21:46:28.477Z,10.38
2022-12-27T21:48:57.518Z,9.85
2022-12-27T21:51:25.830Z,10.75
2022-12-27T21:53:54.019Z,12.45
2022-12-27T21:56:22.036Z,10.50
2022-12-27T21:58:51.712Z,10.88
2022-12-27T22:01:22.026Z,10.73
2022-12-27T22:03:51.570Z,10.80
2022-12-27T22:06:21.569Z,11.23
2022-12-27T22:08:50.840Z,12.05
2022-12-27T22:11:20.177Z,11.13
2022-12-27T22:13:48.730Z,11.90
2022-12-27T22:16:20.099Z,11.68
2022-12-27T22:18:49.133Z,10.75
2022-12-27T22:21:19.043Z,11.23
2022-12-27T22:23:49.133Z,11.75
2022-12-27T22:26:19.538Z,12.63
2022-12-27T22:28:47.897Z,12.85
2022-12-27T22:31:19.189Z,13.02
2022-12-27T22:33:47.673Z,13.57
2022-12-27T22:36:18.120Z,13.50
2022-12-27T22:38:49.751Z,13.52
2022-12-27T22:41:20.016Z,13.02
2022-12-27T22:43:51.451Z,13.75
2022-12-27T22:46:21.613Z,14.93
2022-12-27T22:48:53.178Z,14.80
2022-12-27T22:51:23.328Z,16.90
2022-12-27T22:53:51.585Z,15.70
2022-12-27T22:56:22.515Z,14.75
2022-12-27T22:58:50.678Z,16.65
2022-12-27T23:01:21.914Z,16.02
2022-12-27T23:03:50.445Z,16.75
2022-12-27T23:06:18.795Z,15.88
2022-12-27T23:08:47.429Z,15.02
2022-12-27T23:11:17.625Z,16.70
2022-12-27T23:13:45.411Z,16.95
2022-12-27T23:16:13.401Z,18.13
2022-12-27T23:18:42.703Z,19.13
2022-12-27T23:21:20.102Z,19.40
2022-12-27T23:23:51.428Z,20.52
2022-12-27T23:26:22.103Z,20.42
2022-12-27T23:28:51.177Z,19.13
2022-12-27T23:31:22.047Z,18.40
2022-12-27T23:33:51.696Z,18.13
2022-12-27T23:36:20.789Z,16.98
2022-12-27T23:38:49.596Z,17.92
2022-12-27T23:41:19.043Z,18.33
2022-12-27T23:43:55.662Z,19.13
2022-12-27T23:46:27.769Z,16.67
2022-12-27T23:48:58.028Z,18.48
2022-12-27T23:51:25.921Z,18.52
2022-12-27T23:53:53.737Z,18.75
2022-12-27T23:56:23.135Z,17.73
2022-12-27T23:58:52.588Z,16.50
